sensor_id;sensor_type;location;lat;lon;timestamp;pressure;altitude;pressure_sealevel;temperature;humidity
71948;BME280;63257;55.082;38.772;2023-08-06T00:00:27;100190.66;;;21.46;82.01
71948;BME280;63257;55.082;38.772;2023-08-06T00:02:53;100189.81;;;21.45;82.41
71948;BME280;63257;55.082;38.772;2023-08-06T00:05:19;100190.66;;;21.46;82.50
71948;BME280;63257;55.082;38.772;2023-08-06T00:07:48;100193.34;;;21.46;82.91
71948;BME280;63257;55.082;38.772;2023-08-06T00:10:14;100189.13;;;21.43;83.39
71948;BME280;63257;55.082;38.772;2023-08-06T00:12:40;100196.47;;;21.41;83.56
71948;BME280;63257;55.082;38.772;2023-08-06T00:15:07;100196.47;;;21.41;84.37
71948;BME280;63257;55.082;38.772;2023-08-06T00:17:34;100188.00;;;21.36;85.02
71948;BME280;63257;55.082;38.772;2023-08-06T00:20:01;100191.44;;;21.28;85.61
71948;BME280;63257;55.082;38.772;2023-08-06T00:22:32;100183.66;;;21.25;86.09
71948;BME280;63257;55.082;38.772;2023-08-06T00:24:58;100187.63;;;21.21;86.14
71948;BME280;63257;55.082;38.772;2023-08-06T00:27:24;100184.53;;;21.26;85.79
71948;BME280;63257;55.082;38.772;2023-08-06T00:29:51;100189.75;;;21.27;86.43
71948;BME280;63257;55.082;38.772;2023-08-06T00:32:17;100187.34;;;21.24;86.55
71948;BME280;63257;55.082;38.772;2023-08-06T00:34:43;100186.63;;;21.22;86.95
71948;BME280;63257;55.082;38.772;2023-08-06T00:37:09;100194.97;;;21.19;87.14
71948;BME280;63257;55.082;38.772;2023-08-06T00:39:35;100193.44;;;21.16;87.38
71948;BME280;63257;55.082;38.772;2023-08-06T00:42:00;100189.66;;;21.09;87.45
71948;BME280;63257;55.082;38.772;2023-08-06T00:44:26;100187.25;;;21.06;87.70
71948;BME280;63257;55.082;38.772;2023-08-06T00:46:52;100194.84;;;21.11;87.43
71948;BME280;63257;55.082;38.772;2023-08-06T00:49:18;100197.53;;;21.11;87.29
71948;BME280;63257;55.082;38.772;2023-08-06T00:51:44;100201.06;;;21.11;87.63
71948;BME280;63257;55.082;38.772;2023-08-06T00:54:10;100196.97;;;21.07;87.31
71948;BME280;63257;55.082;38.772;2023-08-06T00:56:36;100179.19;;;20.96;87.94
71948;BME280;63257;55.082;38.772;2023-08-06T00:59:05;100186.56;;;20.94;88.36
71948;BME280;63257;55.082;38.772;2023-08-06T01:01:32;100196.84;;;20.99;88.06
71948;BME280;63257;55.082;38.772;2023-08-06T01:03:58;100199.25;;;20.92;88.17
71948;BME280;63257;55.082;38.772;2023-08-06T01:12:40;100204.91;;;20.89;88.64
71948;BME280;63257;55.082;38.772;2023-08-06T01:14:50;100206.59;;;20.90;88.96
71948;BME280;63257;55.082;38.772;2023-08-06T01:17:19;100200.13;;;20.83;88.42
71948;BME280;63257;55.082;38.772;2023-08-06T01:19:46;100200.28;;;20.81;88.57
71948;BME280;63257;55.082;38.772;2023-08-06T01:22:12;100209.84;;;20.84;88.32
71948;BME280;63257;55.082;38.772;2023-08-06T01:24:38;100200.13;;;20.73;88.97
71948;BME280;63257;55.082;38.772;2023-08-06T01:27:14;100220.31;;;20.77;89.07
71948;BME280;63257;55.082;38.772;2023-08-06T01:29:47;100209.16;;;20.72;88.73
71948;BME280;63257;55.082;38.772;2023-08-06T01:32:15;100214.22;;;20.75;89.13
71948;BME280;63257;55.082;38.772;2023-08-06T01:34:43;100209.44;;;20.69;88.97
71948;BME280;63257;55.082;38.772;2023-08-06T01:37:11;100214.91;;;20.67;88.80
71948;BME280;63257;55.082;38.772;2023-08-06T01:39:37;100225.25;;;20.72;88.67
71948;BME280;63257;55.082;38.772;2023-08-06T01:42:08;100212.13;;;20.69;88.83
71948;BME280;63257;55.082;38.772;2023-08-06T01:44:33;100223.69;;;20.70;88.91
71948;BME280;63257;55.082;38.772;2023-08-06T01:46:59;100232.44;;;20.72;89.04
71948;BME280;63257;55.082;38.772;2023-08-06T01:49:25;100220.41;;;20.66;89.16
71948;BME280;63257;55.082;38.772;2023-08-06T01:51:52;100235.50;;;20.67;89.40
71948;BME280;63257;55.082;38.772;2023-08-06T01:54:18;100226.53;;;20.68;89.47
71948;BME280;63257;55.082;38.772;2023-08-06T01:56:44;100233.59;;;20.69;89.49
71948;BME280;63257;55.082;38.772;2023-08-06T01:59:10;100190.75;;;20.48;89.56
71948;BME280;63257;55.082;38.772;2023-08-06T02:01:36;100218.19;;;20.71;89.53
71948;BME280;63257;55.082;38.772;2023-08-06T02:04:01;100227.34;;;20.68;89.56
71948;BME280;63257;55.082;38.772;2023-08-06T02:06:28;100223.56;;;20.71;89.72
71948;BME280;63257;55.082;38.772;2023-08-06T02:08:54;100225.53;;;20.69;89.71
71948;BME280;63257;55.082;38.772;2023-08-06T02:11:20;100225.53;;;20.69;89.81
71948;BME280;63257;55.082;38.772;2023-08-06T02:13:46;100230.75;;;20.71;89.83
71948;BME280;63257;55.082;38.772;2023-08-06T02:16:18;100234.28;;;20.71;89.88
71948;BME280;63257;55.082;38.772;2023-08-06T02:18:44;100231.13;;;20.66;89.78
71948;BME280;63257;55.082;38.772;2023-08-06T02:21:10;100229.19;;;20.68;89.52
71948;BME280;63257;55.082;38.772;2023-08-06T02:23:36;100244.31;;;20.79;89.55
71948;BME280;63257;55.082;38.772;2023-08-06T02:26:03;100246.72;;;20.82;89.11
71948;BME280;63257;55.082;38.772;2023-08-06T02:28:31;100235.69;;;20.75;88.95
71948;BME280;63257;55.082;38.772;2023-08-06T02:30:57;100253.78;;;20.83;89.48
71948;BME280;63257;55.082;38.772;2023-08-06T02:33:23;100231.31;;;20.74;88.44
71948;BME280;63257;55.082;38.772;2023-08-06T02:35:49;100254.91;;;20.90;88.55
71948;BME280;63257;55.082;38.772;2023-08-06T02:38:16;100260.41;;;20.89;88.90
71948;BME280;63257;55.082;38.772;2023-08-06T02:40:46;100244.84;;;20.82;88.63
71948;BME280;63257;55.082;38.772;2023-08-06T02:43:12;100253.19;;;20.89;88.47
71948;BME280;63257;55.082;38.772;2023-08-06T02:45:39;100263.78;;;20.91;87.85
71948;BME280;63257;55.082;38.772;2023-08-06T02:48:05;100254.47;;;20.95;87.88
71948;BME280;63257;55.082;38.772;2023-08-06T02:50:38;100245.72;;;20.93;87.61
71948;BME280;63257;55.082;38.772;2023-08-06T02:53:05;100259.97;;;21.03;87.38
71948;BME280;63257;55.082;38.772;2023-08-06T02:55:31;100256.88;;;21.08;87.48
71948;BME280;63257;55.082;38.772;2023-08-06T02:57:57;100260.09;;;21.11;86.75
71948;BME280;63257;55.082;38.772;2023-08-06T03:00:23;100254.31;;;21.16;86.58
71948;BME280;63257;55.082;38.772;2023-08-06T03:02:49;100248.38;;;21.12;86.34
71948;BME280;63257;55.082;38.772;2023-08-06T03:05:35;100234.41;;;21.09;85.91
71948;BME280;63257;55.082;38.772;2023-08-06T03:08:01;100239.91;;;21.17;85.89
71948;BME280;63257;55.082;38.772;2023-08-06T03:10:29;100243.56;;;21.26;85.26
71948;BME280;63257;55.082;38.772;2023-08-06T03:12:58;100242.84;;;21.24;85.27
71948;BME280;63257;55.082;38.772;2023-08-06T03:15:24;100254.72;;;21.41;85.06
71948;BME280;63257;55.082;38.772;2023-08-06T03:17:51;100253.56;;;21.43;84.66
71948;BME280;63257;55.082;38.772;2023-08-06T03:20:19;100253.13;;;21.48;84.09
71948;BME280;63257;55.082;38.772;2023-08-06T03:22:45;100242.53;;;21.46;83.88
71948;BME280;63257;55.082;38.772;2023-08-06T03:25:11;100246.22;;;21.55;83.27
71948;BME280;63257;55.082;38.772;2023-08-06T03:27:37;100251.56;;;21.65;83.25
71948;BME280;63257;55.082;38.772;2023-08-06T03:30:03;100241.09;;;21.62;82.94
71948;BME280;63257;55.082;38.772;2023-08-06T03:32:32;100245.91;;;21.68;82.12
71948;BME280;63257;55.082;38.772;2023-08-06T03:34:58;100256.63;;;21.78;82.30
71948;BME280;63257;55.082;38.772;2023-08-06T03:37:29;100244.00;;;21.78;81.87
71948;BME280;63257;55.082;38.772;2023-08-06T03:39:55;100252.03;;;21.88;81.23
71948;BME280;63257;55.082;38.772;2023-08-06T03:42:21;100246.91;;;21.95;81.43
71948;BME280;63257;55.082;38.772;2023-08-06T03:44:47;100239.84;;;21.94;81.16
71948;BME280;63257;55.082;38.772;2023-08-06T03:47:13;100245.47;;;22.00;81.26
71948;BME280;63257;55.082;38.772;2023-08-06T03:49:39;100246.03;;;22.04;81.02
71948;BME280;63257;55.082;38.772;2023-08-06T03:52:06;100255.03;;;22.13;80.26
71948;BME280;63257;55.082;38.772;2023-08-06T03:54:32;100246.38;;;22.19;80.19
71948;BME280;63257;55.082;38.772;2023-08-06T03:56:58;100248.63;;;22.24;79.97
71948;BME280;63257;55.082;38.772;2023-08-06T03:59:24;100250.56;;;22.31;79.41
71948;BME280;63257;55.082;38.772;2023-08-06T04:01:49;100252.13;;;22.34;79.15
71948;BME280;63257;55.082;38.772;2023-08-06T04:04:15;100249.66;;;22.41;78.79
71948;BME280;63257;55.082;38.772;2023-08-06T04:06:41;100256.31;;;22.46;78.53
71948;BME280;63257;55.082;38.772;2023-08-06T04:09:06;100242.16;;;22.44;78.59
71948;BME280;63257;55.082;38.772;2023-08-06T04:11:32;100239.84;;;22.49;78.31
71948;BME280;63257;55.082;38.772;2023-08-06T04:13:58;100241.34;;;22.62;77.81
71948;BME280;63257;55.082;38.772;2023-08-06T04:16:24;100229.03;;;22.59;77.63
71948;BME280;63257;55.082;38.772;2023-08-06T04:18:52;100232.63;;;22.68;77.57
71948;BME280;63257;55.082;38.772;2023-08-06T04:21:19;100249.56;;;22.78;77.08
71948;BME280;63257;55.082;38.772;2023-08-06T04:23:46;100246.41;;;22.83;77.22
71948;BME280;63257;55.082;38.772;2023-08-06T04:26:13;100250.63;;;22.85;77.18
71948;BME280;63257;55.082;38.772;2023-08-06T04:28:39;100253.38;;;22.94;76.85
71948;BME280;63257;55.082;38.772;2023-08-06T04:31:05;100244.31;;;22.95;76.09
71948;BME280;63257;55.082;38.772;2023-08-06T04:33:32;100253.69;;;23.09;76.02
71948;BME280;63257;55.082;38.772;2023-08-06T04:36:03;100234.00;;;23.08;75.73
71948;BME280;63257;55.082;38.772;2023-08-06T04:38:29;100245.88;;;23.15;75.10
71948;BME280;63257;55.082;38.772;2023-08-06T04:40:55;100245.44;;;23.28;74.79
71948;BME280;63257;55.082;38.772;2023-08-06T04:43:22;100237.22;;;23.30;74.84
71948;BME280;63257;55.082;38.772;2023-08-06T04:45:50;100250.13;;;23.44;74.20
71948;BME280;63257;55.082;38.772;2023-08-06T04:48:16;100257.38;;;23.52;73.94
71948;BME280;63257;55.082;38.772;2023-08-06T04:50:46;100237.22;;;23.56;73.24
71948;BME280;63257;55.082;38.772;2023-08-06T04:53:12;100253.28;;;23.66;73.70
71948;BME280;63257;55.082;38.772;2023-08-06T04:55:38;100244.00;;;23.68;72.44
71948;BME280;63257;55.082;38.772;2023-08-06T04:58:04;100244.06;;;23.77;72.17
71948;BME280;63257;55.082;38.772;2023-08-06T05:00:30;100248.31;;;23.87;71.79
71948;BME280;63257;55.082;38.772;2023-08-06T05:02:55;100227.25;;;23.83;72.03
71948;BME280;63257;55.082;38.772;2023-08-06T05:05:21;100239.84;;;24.00;71.52
71948;BME280;63257;55.082;38.772;2023-08-06T05:07:48;100242.03;;;24.05;71.53
71948;BME280;63257;55.082;38.772;2023-08-06T05:10:14;100226.22;;;24.10;70.98
71948;BME280;63257;55.082;38.772;2023-08-06T05:12:40;100235.53;;;24.24;70.79
71948;BME280;63257;55.082;38.772;2023-08-06T05:15:06;100234.72;;;24.32;70.19
71948;BME280;63257;55.082;38.772;2023-08-06T05:17:32;100227.50;;;24.41;70.17
71948;BME280;63257;55.082;38.772;2023-08-06T05:19:59;100224.97;;;24.47;70.13
71948;BME280;63257;55.082;38.772;2023-08-06T05:22:26;100217.72;;;24.48;69.86
71948;BME280;63257;55.082;38.772;2023-08-06T05:24:51;100213.34;;;24.55;69.44
71948;BME280;63257;55.082;38.772;2023-08-06T05:27:17;100208.84;;;24.64;69.31
71948;BME280;63257;55.082;38.772;2023-08-06T05:29:45;100226.06;;;24.79;69.25
71948;BME280;63257;55.082;38.772;2023-08-06T05:32:11;100231.97;;;24.91;68.64
71948;BME280;63257;55.082;38.772;2023-08-06T05:34:37;100227.06;;;24.95;68.06
71948;BME280;63257;55.082;38.772;2023-08-06T05:37:04;100228.09;;;25.02;67.50
71948;BME280;63257;55.082;38.772;2023-08-06T05:39:29;100220.66;;;25.04;67.50
71948;BME280;63257;55.082;38.772;2023-08-06T05:41:55;100216.94;;;25.13;67.62
71948;BME280;63257;55.082;38.772;2023-08-06T05:44:23;100223.19;;;25.22;67.17
71948;BME280;63257;55.082;38.772;2023-08-06T05:46:49;100223.00;;;25.32;66.89
71948;BME280;63257;55.082;38.772;2023-08-06T05:49:15;100213.56;;;25.36;66.78
71948;BME280;63257;55.082;38.772;2023-08-06T05:51:41;100213.72;;;25.43;65.85
71948;BME280;63257;55.082;38.772;2023-08-06T05:54:07;100218.94;;;25.52;65.73
71948;BME280;63257;55.082;38.772;2023-08-06T05:56:33;100227.00;;;25.61;66.28
71948;BME280;63257;55.082;38.772;2023-08-06T05:58:59;100227.84;;;25.69;65.67
71948;BME280;63257;55.082;38.772;2023-08-06T06:01:25;100224.63;;;25.74;65.24
71948;BME280;63257;55.082;38.772;2023-08-06T06:03:51;100215.66;;;25.73;65.34
71948;BME280;63257;55.082;38.772;2023-08-06T06:06:17;100229.59;;;25.94;64.88
71948;BME280;63257;55.082;38.772;2023-08-06T06:08:44;100212.88;;;25.98;65.52
71948;BME280;63257;55.082;38.772;2023-08-06T06:11:10;100219.75;;;26.17;63.59
71948;BME280;63257;55.082;38.772;2023-08-06T06:13:36;100218.38;;;26.21;63.00
71948;BME280;63257;55.082;38.772;2023-08-06T06:16:02;100209.88;;;26.24;63.58
71948;BME280;63257;55.082;38.772;2023-08-06T06:18:28;100212.53;;;26.33;63.58
71948;BME280;63257;55.082;38.772;2023-08-06T06:20:53;100223.44;;;26.48;63.54
71948;BME280;63257;55.082;38.772;2023-08-06T06:23:19;100195.06;;;26.44;62.66
71948;BME280;63257;55.082;38.772;2023-08-06T06:25:49;100214.41;;;26.55;61.74
71948;BME280;63257;55.082;38.772;2023-08-06T06:28:17;100218.09;;;26.63;60.85
71948;BME280;63257;55.082;38.772;2023-08-06T06:30:43;100202.34;;;26.66;60.33
71948;BME280;63257;55.082;38.772;2023-08-06T06:33:09;100215.31;;;26.79;60.71
71948;BME280;63257;55.082;38.772;2023-08-06T06:35:35;100206.94;;;26.89;60.02
71948;BME280;63257;55.082;38.772;2023-08-06T06:38:02;100205.38;;;26.95;59.90
71948;BME280;63257;55.082;38.772;2023-08-06T06:40:28;100216.41;;;27.08;60.41
71948;BME280;63257;55.082;38.772;2023-08-06T06:42:54;100204.53;;;27.09;58.85
71948;BME280;63257;55.082;38.772;2023-08-06T06:45:20;100211.94;;;27.15;59.37
71948;BME280;63257;55.082;38.772;2023-08-06T06:47:46;100203.94;;;27.22;59.61
71948;BME280;63257;55.082;38.772;2023-08-06T06:50:11;100207.75;;;27.28;59.65
71948;BME280;63257;55.082;38.772;2023-08-06T06:52:37;100192.72;;;27.25;59.81
71948;BME280;63257;55.082;38.772;2023-08-06T06:55:04;100202.28;;;27.36;59.09
71948;BME280;63257;55.082;38.772;2023-08-06T06:57:30;100210.97;;;27.46;59.03
71948;BME280;63257;55.082;38.772;2023-08-06T06:59:55;100199.78;;;27.49;59.77
71948;BME280;63257;55.082;38.772;2023-08-06T07:02:21;100199.03;;;27.55;58.54
71948;BME280;63257;55.082;38.772;2023-08-06T07:04:47;100202.47;;;27.64;58.01
71948;BME280;63257;55.082;38.772;2023-08-06T07:07:13;100198.94;;;27.64;57.73
71948;BME280;63257;55.082;38.772;2023-08-06T07:09:38;100209.28;;;27.75;57.27
71948;BME280;63257;55.082;38.772;2023-08-06T07:12:04;100200.81;;;27.78;57.41
71948;BME280;63257;55.082;38.772;2023-08-06T07:14:30;100207.78;;;27.87;56.87
71948;BME280;63257;55.082;38.772;2023-08-06T07:16:56;100205.16;;;27.94;56.48
71948;BME280;63257;55.082;38.772;2023-08-06T07:19:23;100205.28;;;28.01;56.87
71948;BME280;63257;55.082;38.772;2023-08-06T07:21:48;100201.81;;;28.07;56.91
71948;BME280;63257;55.082;38.772;2023-08-06T07:24:14;100187.88;;;28.10;56.24
71948;BME280;63257;55.082;38.772;2023-08-06T07:26:40;100188.78;;;28.17;56.18
71948;BME280;63257;55.082;38.772;2023-08-06T07:29:06;100203.06;;;28.26;55.73
71948;BME280;63257;55.082;38.772;2023-08-06T07:31:31;100198.94;;;28.30;55.47
71948;BME280;63257;55.082;38.772;2023-08-06T07:33:57;100196.28;;;28.37;54.71
71948;BME280;63257;55.082;38.772;2023-08-06T07:36:23;100189.63;;;28.39;54.47
71948;BME280;63257;55.082;38.772;2023-08-06T07:38:48;100185.97;;;28.47;54.84
71948;BME280;63257;55.082;38.772;2023-08-06T07:41:17;100184.56;;;28.51;54.73
71948;BME280;63257;55.082;38.772;2023-08-06T07:43:43;100189.66;;;28.61;54.46
71948;BME280;63257;55.082;38.772;2023-08-06T07:46:08;100193.09;;;28.70;52.81
71948;BME280;63257;55.082;38.772;2023-08-06T07:48:34;100194.19;;;28.75;53.21
71948;BME280;63257;55.082;38.772;2023-08-06T07:51:00;100179.78;;;28.75;52.52
71948;BME280;63257;55.082;38.772;2023-08-06T07:53:26;100176.25;;;28.74;51.87
71948;BME280;63257;55.082;38.772;2023-08-06T07:55:57;100165.59;;;28.80;52.53
71948;BME280;63257;55.082;38.772;2023-08-06T07:58:24;100177.44;;;28.93;52.85
71948;BME280;63257;55.082;38.772;2023-08-06T08:00:51;100176.00;;;28.98;51.88
71948;BME280;63257;55.082;38.772;2023-08-06T08:03:17;100180.91;;;29.09;51.58
71948;BME280;63257;55.082;38.772;2023-08-06T08:05:43;100184.28;;;29.18;51.84
71948;BME280;63257;55.082;38.772;2023-08-06T08:08:09;100171.13;;;29.15;50.70
71948;BME280;63257;55.082;38.772;2023-08-06T08:10:35;100167.22;;;29.24;51.54
71948;BME280;63257;55.082;38.772;2023-08-06T08:13:02;100182.53;;;29.32;50.01
71948;BME280;63257;55.082;38.772;2023-08-06T08:15:29;100183.97;;;29.27;50.68
71948;BME280;63257;55.082;38.772;2023-08-06T08:17:55;100177.75;;;29.34;49.38
71948;BME280;63257;55.082;38.772;2023-08-06T08:20:21;100177.16;;;29.38;49.42
71948;BME280;63257;55.082;38.772;2023-08-06T08:22:47;100180.53;;;29.40;49.62
71948;BME280;63257;55.082;38.772;2023-08-06T08:25:15;100160.25;;;29.43;49.37
71948;BME280;63257;55.082;38.772;2023-08-06T08:27:40;100176.41;;;29.51;48.03
71948;BME280;63257;55.082;38.772;2023-08-06T08:30:07;100171.63;;;29.60;50.24
71948;BME280;63257;55.082;38.772;2023-08-06T08:32:33;100175.59;;;29.57;50.12
71948;BME280;63257;55.082;38.772;2023-08-06T08:34:58;100175.63;;;29.64;50.13
71948;BME280;63257;55.082;38.772;2023-08-06T08:37:24;100157.38;;;29.58;48.36
71948;BME280;63257;55.082;38.772;2023-08-06T08:39:50;100151.16;;;29.64;50.13
71948;BME280;63257;55.082;38.772;2023-08-06T08:42:16;100165.63;;;29.78;49.13
71948;BME280;63257;55.082;38.772;2023-08-06T08:44:42;100166.97;;;29.89;49.92
71948;BME280;63257;55.082;38.772;2023-08-06T08:47:08;100164.03;;;29.90;49.50
71948;BME280;63257;55.082;38.772;2023-08-06T08:49:36;100163.63;;;29.93;48.13
71948;BME280;63257;55.082;38.772;2023-08-06T08:52:03;100160.53;;;29.97;48.04
71948;BME280;63257;55.082;38.772;2023-08-06T08:54:32;100157.97;;;29.95;46.94
71948;BME280;63257;55.082;38.772;2023-08-06T08:56:59;100155.72;;;29.99;47.27
71948;BME280;63257;55.082;38.772;2023-08-06T08:59:26;100158.22;;;30.00;46.91
71948;BME280;63257;55.082;38.772;2023-08-06T09:01:52;100151.13;;;30.06;46.89
71948;BME280;63257;55.082;38.772;2023-08-06T09:04:19;100162.25;;;30.18;47.13
71948;BME280;63257;55.082;38.772;2023-08-06T09:06:50;100151.19;;;30.26;46.62
71948;BME280;63257;55.082;38.772;2023-08-06T09:09:24;100156.00;;;30.31;47.14
71948;BME280;63257;55.082;38.772;2023-08-06T09:11:51;100149.09;;;30.35;46.65
71948;BME280;63257;55.082;38.772;2023-08-06T09:14:17;100144.28;;;30.37;46.50
71948;BME280;63257;55.082;38.772;2023-08-06T09:16:44;100146.63;;;30.47;46.67
71948;BME280;63257;55.082;38.772;2023-08-06T09:19:11;100154.38;;;30.56;47.34
71948;BME280;63257;55.082;38.772;2023-08-06T09:21:39;100147.06;;;30.63;46.59
71948;BME280;63257;55.082;38.772;2023-08-06T09:24:12;100137.22;;;30.56;45.89
71948;BME280;63257;55.082;38.772;2023-08-06T09:26:39;100140.78;;;30.56;44.91
71948;BME280;63257;55.082;38.772;2023-08-06T09:29:07;100145.38;;;30.56;44.98
71948;BME280;63257;55.082;38.772;2023-08-06T09:34:19;100138.06;;;30.70;45.10
71948;BME280;63257;55.082;38.772;2023-08-06T09:36:50;100138.28;;;30.75;44.75
71948;BME280;63257;55.082;38.772;2023-08-06T09:39:18;100136.81;;;30.79;44.37
71948;BME280;63257;55.082;38.772;2023-08-06T09:41:45;100132.78;;;30.82;45.26
71948;BME280;63257;55.082;38.772;2023-08-06T09:44:21;100133.66;;;30.89;41.94
71948;BME280;63257;55.082;38.772;2023-08-06T09:46:50;100130.28;;;30.87;43.77
71948;BME280;63257;55.082;38.772;2023-08-06T09:49:18;100130.72;;;30.90;44.36
71948;BME280;63257;55.082;38.772;2023-08-06T09:51:46;100121.28;;;31.00;44.92
71948;BME280;63257;55.082;38.772;2023-08-06T09:54:17;100131.13;;;31.07;43.08
71948;BME280;63257;55.082;38.772;2023-08-06T09:56:45;100120.22;;;31.14;43.07
71948;BME280;63257;55.082;38.772;2023-08-06T09:59:11;100108.47;;;31.20;43.05
71948;BME280;63257;55.082;38.772;2023-08-06T10:01:37;100118.28;;;31.35;43.94
71948;BME280;63257;55.082;38.772;2023-08-06T10:04:04;100100.44;;;31.32;43.02
71948;BME280;63257;55.082;38.772;2023-08-06T10:06:34;100105.06;;;31.38;43.42
71948;BME280;63257;55.082;38.772;2023-08-06T10:09:01;100107.13;;;31.50;42.46
71948;BME280;63257;55.082;38.772;2023-08-06T10:11:28;100102.69;;;31.49;41.45
71948;BME280;63257;55.082;38.772;2023-08-06T10:16:34;100095.63;;;31.41;42.80
71948;BME280;63257;55.082;38.772;2023-08-06T10:19:04;100092.44;;;31.44;42.17
71948;BME280;63257;55.082;38.772;2023-08-06T10:21:31;100097.06;;;31.43;43.07
71948;BME280;63257;55.082;38.772;2023-08-06T10:23:57;100096.91;;;31.32;43.13
71948;BME280;63257;55.082;38.772;2023-08-06T10:26:29;100079.91;;;31.29;42.97
71948;BME280;63257;55.082;38.772;2023-08-06T10:28:55;100086.75;;;31.52;43.07
71948;BME280;63257;55.082;38.772;2023-08-06T10:31:55;100080.66;;;31.63;43.44
71948;BME280;63257;55.082;38.772;2023-08-06T10:34:24;100080.81;;;31.75;43.22
71948;BME280;63257;55.082;38.772;2023-08-06T10:36:50;100088.31;;;31.80;43.00
71948;BME280;63257;55.082;38.772;2023-08-06T10:39:19;100080.56;;;31.84;43.00
71948;BME280;63257;55.082;38.772;2023-08-06T10:41:45;100072.38;;;31.84;42.58
71948;BME280;63257;55.082;38.772;2023-08-06T10:44:11;100066.75;;;31.72;43.91
71948;BME280;63257;55.082;38.772;2023-08-06T10:46:37;100075.50;;;31.80;44.52
71948;BME280;63257;55.082;38.772;2023-08-06T10:49:04;100074.06;;;31.78;42.01
71948;BME280;63257;55.082;38.772;2023-08-06T10:51:30;100078.38;;;31.92;42.59
71948;BME280;63257;55.082;38.772;2023-08-06T10:53:56;100063.31;;;31.83;40.90
71948;BME280;63257;55.082;38.772;2023-08-06T10:56:25;100075.19;;;32.02;43.39
71948;BME280;63257;55.082;38.772;2023-08-06T10:58:54;100069.66;;;32.09;42.01
71948;BME280;63257;55.082;38.772;2023-08-06T11:01:22;100065.72;;;32.05;40.11
71948;BME280;63257;55.082;38.772;2023-08-06T11:03:48;100080.00;;;32.07;39.73
71948;BME280;63257;55.082;38.772;2023-08-06T11:06:22;100061.88;;;32.12;40.86
71948;BME280;63257;55.082;38.772;2023-08-06T11:08:50;100079.25;;;32.25;39.68
71948;BME280;63257;55.082;38.772;2023-08-06T11:11:17;100071.28;;;32.48;41.05
71948;BME280;63257;55.082;38.772;2023-08-06T11:13:45;100064.84;;;32.11;41.90
71948;BME280;63257;55.082;38.772;2023-08-06T11:16:13;100059.88;;;32.33;40.49
71948;BME280;63257;55.082;38.772;2023-08-06T11:18:40;100065.03;;;32.67;40.67
71948;BME280;63257;55.082;38.772;2023-08-06T11:21:08;100054.09;;;33.10;39.62
71948;BME280;63257;55.082;38.772;2023-08-06T11:23:34;100050.25;;;33.37;37.01
71948;BME280;63257;55.082;38.772;2023-08-06T11:26:01;100054.28;;;33.64;36.79
71948;BME280;63257;55.082;38.772;2023-08-06T11:28:27;100055.25;;;33.89;37.10
71948;BME280;63257;55.082;38.772;2023-08-06T11:30:53;100057.34;;;34.17;37.26
71948;BME280;63257;55.082;38.772;2023-08-06T11:33:24;100047.88;;;34.31;36.52
71948;BME280;63257;55.082;38.772;2023-08-06T11:35:58;100057.06;;;34.49;36.25
71948;BME280;63257;55.082;38.772;2023-08-06T11:38:28;100049.19;;;34.64;34.89
71948;BME280;63257;55.082;38.772;2023-08-06T11:40:54;100051.94;;;35.00;33.73
71948;BME280;63257;55.082;38.772;2023-08-06T11:43:21;100043.41;;;35.37;34.49
71948;BME280;63257;55.082;38.772;2023-08-06T11:45:49;100048.53;;;35.62;34.12
71948;BME280;63257;55.082;38.772;2023-08-06T11:48:16;100042.59;;;35.65;32.54
71948;BME280;63257;55.082;38.772;2023-08-06T11:50:44;100038.56;;;35.85;32.70
71948;BME280;63257;55.082;38.772;2023-08-06T11:53:13;100036.44;;;36.04;34.43
71948;BME280;63257;55.082;38.772;2023-08-06T11:55:40;100038.09;;;36.22;32.77
71948;BME280;63257;55.082;38.772;2023-08-06T11:58:06;100035.19;;;36.29;32.11
71948;BME280;63257;55.082;38.772;2023-08-06T12:00:33;100025.16;;;36.34;32.32
71948;BME280;63257;55.082;38.772;2023-08-06T12:02:59;100013.69;;;36.26;32.47
71948;BME280;63257;55.082;38.772;2023-08-06T12:05:30;100029.97;;;36.44;32.24
71948;BME280;63257;55.082;38.772;2023-08-06T12:07:59;100033.00;;;36.65;34.18
71948;BME280;63257;55.082;38.772;2023-08-06T12:10:26;100024.81;;;36.48;32.60
71948;BME280;63257;55.082;38.772;2023-08-06T12:12:53;100025.31;;;36.67;32.47
71948;BME280;63257;55.082;38.772;2023-08-06T12:15:19;100016.19;;;36.61;33.62
71948;BME280;63257;55.082;38.772;2023-08-06T12:17:45;100015.81;;;36.75;32.57
71948;BME280;63257;55.082;38.772;2023-08-06T12:20:11;100014.75;;;36.76;32.32
71948;BME280;63257;55.082;38.772;2023-08-06T12:22:38;100016.91;;;36.91;34.12
71948;BME280;63257;55.082;38.772;2023-08-06T12:25:07;100007.88;;;36.95;32.16
71948;BME280;63257;55.082;38.772;2023-08-06T12:27:39;100021.97;;;36.99;32.95
71948;BME280;63257;55.082;38.772;2023-08-06T12:30:07;100018.25;;;36.71;32.13
71948;BME280;63257;55.082;38.772;2023-08-06T12:32:37;100016.75;;;37.03;31.05
71948;BME280;63257;55.082;38.772;2023-08-06T12:35:04;100016.72;;;37.20;29.31
71948;BME280;63257;55.082;38.772;2023-08-06T12:37:33;99991.06;;;37.14;28.96
71948;BME280;63257;55.082;38.772;2023-08-06T12:40:00;100004.03;;;37.41;31.72
71948;BME280;63257;55.082;38.772;2023-08-06T12:42:26;100007.88;;;37.67;30.91
71948;BME280;63257;55.082;38.772;2023-08-06T12:44:52;100002.44;;;37.72;30.92
71948;BME280;63257;55.082;38.772;2023-08-06T12:47:18;99998.81;;;37.66;28.83
71948;BME280;63257;55.082;38.772;2023-08-06T12:49:46;99992.16;;;37.62;28.90